sensor_id;sensor_type;location;lat;lon;timestamp;P1;durP1;ratioP1;P2;durP2;ratioP2
9559;SDS011;4818;50.860;4.648;2023-08-06T00:01:40;4.78;;;0.50;;
9559;SDS011;4818;50.860;4.648;2023-08-06T00:04:06;2.20;;;0.40;;
9559;SDS011;4818;50.860;4.648;2023-08-06T00:06:32;4.10;;;0.60;;
9559;SDS011;4818;50.860;4.648;2023-08-06T00:08:58;6.50;;;0.95;;
9559;SDS011;4818;50.860;4.648;2023-08-06T00:11:24;3.20;;;0.43;;
9559;SDS011;4818;50.860;4.648;2023-08-06T00:13:50;2.90;;;0.60;;
9559;SDS011;4818;50.860;4.648;2023-08-06T00:16:16;2.80;;;0.50;;
9559;SDS011;4818;50.860;4.648;2023-08-06T00:18:42;3.78;;;0.70;;
9559;SDS011;4818;50.860;4.648;2023-08-06T00:21:08;3.30;;;0.60;;
9559;SDS011;4818;50.860;4.648;2023-08-06T00:23:37;6.68;;;1.20;;
9559;SDS011;4818;50.860;4.648;2023-08-06T00:26:03;1.48;;;0.40;;
9559;SDS011;4818;50.860;4.648;2023-08-06T00:28:29;4.32;;;0.98;;
9559;SDS011;4818;50.860;4.648;2023-08-06T00:30:55;5.53;;;0.60;;
9559;SDS011;4818;50.860;4.648;2023-08-06T00:33:21;5.30;;;0.60;;
9559;SDS011;4818;50.860;4.648;2023-08-06T00:35:48;5.90;;;0.55;;
9559;SDS011;4818;50.860;4.648;2023-08-06T00:38:14;3.45;;;0.70;;
9559;SDS011;4818;50.860;4.648;2023-08-06T00:40:40;7.80;;;0.75;;
9559;SDS011;4818;50.860;4.648;2023-08-06T00:43:06;4.05;;;0.55;;
9559;SDS011;4818;50.860;4.648;2023-08-06T00:45:36;3.70;;;0.90;;
9559;SDS011;4818;50.860;4.648;2023-08-06T00:48:02;5.88;;;0.75;;
9559;SDS011;4818;50.860;4.648;2023-08-06T00:50:29;2.67;;;0.60;;
9559;SDS011;4818;50.860;4.648;2023-08-06T00:52:55;6.55;;;0.75;;
9559;SDS011;4818;50.860;4.648;2023-08-06T00:55:22;9.57;;;0.80;;
9559;SDS011;4818;50.860;4.648;2023-08-06T00:57:48;3.65;;;0.60;;
9559;SDS011;4818;50.860;4.648;2023-08-06T01:00:16;5.57;;;0.80;;
9559;SDS011;4818;50.860;4.648;2023-08-06T01:02:42;3.58;;;0.75;;
9559;SDS011;4818;50.860;4.648;2023-08-06T01:05:08;2.42;;;0.85;;
9559;SDS011;4818;50.860;4.648;2023-08-06T01:10:33;2.03;;;0.70;;
9559;SDS011;4818;50.860;4.648;2023-08-06T01:15:47;2.90;;;0.70;;
9559;SDS011;4818;50.860;4.648;2023-08-06T01:18:15;7.82;;;1.00;;
9559;SDS011;4818;50.860;4.648;2023-08-06T01:20:41;7.75;;;0.75;;
9559;SDS011;4818;50.860;4.648;2023-08-06T01:23:07;2.70;;;1.00;;
9559;SDS011;4818;50.860;4.648;2023-08-06T01:25:34;3.30;;;1.00;;
9559;SDS011;4818;50.860;4.648;2023-08-06T01:28:06;6.45;;;1.20;;
9559;SDS011;4818;50.860;4.648;2023-08-06T01:30:33;8.27;;;2.25;;
9559;SDS011;4818;50.860;4.648;2023-08-06T01:33:04;5.03;;;0.82;;
9559;SDS011;4818;50.860;4.648;2023-08-06T01:35:31;3.95;;;1.65;;
9559;SDS011;4818;50.860;4.648;2023-08-06T01:37:59;4.60;;;1.40;;
9559;SDS011;4818;50.860;4.648;2023-08-06T01:40:25;11.38;;;1.88;;
9559;SDS011;4818;50.860;4.648;2023-08-06T01:42:53;4.50;;;2.15;;
9559;SDS011;4818;50.860;4.648;2023-08-06T01:45:19;3.33;;;1.52;;
9559;SDS011;4818;50.860;4.648;2023-08-06T01:47:45;5.25;;;1.58;;
9559;SDS011;4818;50.860;4.648;2023-08-06T01:50:11;7.65;;;2.47;;
9559;SDS011;4818;50.860;4.648;2023-08-06T01:52:37;5.78;;;2.30;;
9559;SDS011;4818;50.860;4.648;2023-08-06T01:55:03;7.13;;;3.30;;
9559;SDS011;4818;50.860;4.648;2023-08-06T01:57:30;5.18;;;2.47;;
9559;SDS011;4818;50.860;4.648;2023-08-06T01:59:56;10.32;;;3.22;;
9559;SDS011;4818;50.860;4.648;2023-08-06T02:02:22;10.68;;;3.53;;
9559;SDS011;4818;50.860;4.648;2023-08-06T02:04:48;9.02;;;3.47;;
9559;SDS011;4818;50.860;4.648;2023-08-06T02:07:14;6.95;;;2.58;;
9559;SDS011;4818;50.860;4.648;2023-08-06T02:09:40;10.23;;;4.13;;
9559;SDS011;4818;50.860;4.648;2023-08-06T02:12:06;9.68;;;3.05;;
9559;SDS011;4818;50.860;4.648;2023-08-06T02:14:33;6.63;;;4.50;;
9559;SDS011;4818;50.860;4.648;2023-08-06T02:16:59;6.65;;;3.67;;
9559;SDS011;4818;50.860;4.648;2023-08-06T02:19:25;7.30;;;3.95;;
9559;SDS011;4818;50.860;4.648;2023-08-06T02:21:51;6.60;;;4.30;;
9559;SDS011;4818;50.860;4.648;2023-08-06T02:24:17;20.92;;;4.55;;
9559;SDS011;4818;50.860;4.648;2023-08-06T02:26:43;12.20;;;3.90;;
9559;SDS011;4818;50.860;4.648;2023-08-06T02:29:09;5.95;;;3.47;;
9559;SDS011;4818;50.860;4.648;2023-08-06T02:31:36;8.63;;;4.10;;
9559;SDS011;4818;50.860;4.648;2023-08-06T02:34:02;6.55;;;3.47;;
9559;SDS011;4818;50.860;4.648;2023-08-06T02:36:28;10.60;;;3.53;;
9559;SDS011;4818;50.860;4.648;2023-08-06T02:38:54;6.65;;;4.10;;
9559;SDS011;4818;50.860;4.648;2023-08-06T02:41:20;5.60;;;3.70;;
9559;SDS011;4818;50.860;4.648;2023-08-06T02:43:47;9.30;;;4.45;;
9559;SDS011;4818;50.860;4.648;2023-08-06T02:46:13;11.38;;;3.72;;
9559;SDS011;4818;50.860;4.648;2023-08-06T02:48:39;7.43;;;3.70;;
9559;SDS011;4818;50.860;4.648;2023-08-06T02:51:05;9.30;;;3.17;;
9559;SDS011;4818;50.860;4.648;2023-08-06T02:53:31;9.80;;;4.00;;
9559;SDS011;4818;50.860;4.648;2023-08-06T02:55:57;9.05;;;3.38;;
9559;SDS011;4818;50.860;4.648;2023-08-06T02:58:24;7.65;;;3.28;;
9559;SDS011;4818;50.860;4.648;2023-08-06T03:01:03;7.28;;;3.00;;
9559;SDS011;4818;50.860;4.648;2023-08-06T03:03:30;8.80;;;3.03;;
9559;SDS011;4818;50.860;4.648;2023-08-06T03:05:56;7.30;;;2.88;;
9559;SDS011;4818;50.860;4.648;2023-08-06T03:08:24;6.88;;;2.13;;
9559;SDS011;4818;50.860;4.648;2023-08-06T03:10:51;11.15;;;2.60;;
9559;SDS011;4818;50.860;4.648;2023-08-06T03:13:17;6.43;;;2.47;;
9559;SDS011;4818;50.860;4.648;2023-08-06T03:15:51;14.60;;;2.65;;
9559;SDS011;4818;50.860;4.648;2023-08-06T03:18:18;7.03;;;2.00;;
9559;SDS011;4818;50.860;4.648;2023-08-06T03:20:44;8.02;;;2.70;;
9559;SDS011;4818;50.860;4.648;2023-08-06T03:23:11;7.65;;;2.83;;
9559;SDS011;4818;50.860;4.648;2023-08-06T03:25:37;8.88;;;2.78;;
9559;SDS011;4818;50.860;4.648;2023-08-06T03:28:03;6.10;;;2.47;;
9559;SDS011;4818;50.860;4.648;2023-08-06T03:30:29;8.98;;;3.55;;
9559;SDS011;4818;50.860;4.648;2023-08-06T03:32:55;8.80;;;3.75;;
9559;SDS011;4818;50.860;4.648;2023-08-06T03:35:22;7.55;;;4.10;;
9559;SDS011;4818;50.860;4.648;2023-08-06T03:37:48;11.75;;;3.28;;
9559;SDS011;4818;50.860;4.648;2023-08-06T03:40:15;14.63;;;4.80;;
9559;SDS011;4818;50.860;4.648;2023-08-06T03:42:41;12.23;;;5.10;;
9559;SDS011;4818;50.860;4.648;2023-08-06T03:45:07;15.63;;;5.78;;
9559;SDS011;4818;50.860;4.648;2023-08-06T03:47:34;17.92;;;5.93;;
9559;SDS011;4818;50.860;4.648;2023-08-06T03:50:00;20.38;;;6.68;;
9559;SDS011;4818;50.860;4.648;2023-08-06T03:52:27;16.63;;;8.55;;
9559;SDS011;4818;50.860;4.648;2023-08-06T03:54:53;20.98;;;9.18;;
9559;SDS011;4818;50.860;4.648;2023-08-06T03:57:19;23.15;;;9.85;;
9559;SDS011;4818;50.860;4.648;2023-08-06T03:59:45;21.70;;;9.02;;
9559;SDS011;4818;50.860;4.648;2023-08-06T04:02:11;25.77;;;10.05;;
9559;SDS011;4818;50.860;4.648;2023-08-06T04:04:38;21.50;;;10.18;;
9559;SDS011;4818;50.860;4.648;2023-08-06T04:07:04;22.35;;;9.40;;
9559;SDS011;4818;50.860;4.648;2023-08-06T04:09:30;19.90;;;9.40;;
9559;SDS011;4818;50.860;4.648;2023-08-06T04:11:57;30.58;;;11.38;;
9559;SDS011;4818;50.860;4.648;2023-08-06T04:14:26;36.35;;;15.13;;
9559;SDS011;4818;50.860;4.648;2023-08-06T04:16:52;32.70;;;13.00;;
9559;SDS011;4818;50.860;4.648;2023-08-06T04:19:18;39.33;;;13.98;;
9559;SDS011;4818;50.860;4.648;2023-08-06T04:21:45;40.25;;;16.20;;
9559;SDS011;4818;50.860;4.648;2023-08-06T04:24:11;44.67;;;15.70;;
9559;SDS011;4818;50.860;4.648;2023-08-06T04:26:37;35.65;;;14.10;;
9559;SDS011;4818;50.860;4.648;2023-08-06T04:29:03;35.70;;;13.27;;
9559;SDS011;4818;50.860;4.648;2023-08-06T04:31:29;29.58;;;11.23;;
9559;SDS011;4818;50.860;4.648;2023-08-06T04:33:56;17.88;;;8.93;;
9559;SDS011;4818;50.860;4.648;2023-08-06T04:36:22;17.42;;;7.38;;
9559;SDS011;4818;50.860;4.648;2023-08-06T04:38:48;9.13;;;4.13;;
9559;SDS011;4818;50.860;4.648;2023-08-06T04:41:15;6.00;;;2.05;;
9559;SDS011;4818;50.860;4.648;2023-08-06T04:43:41;4.00;;;1.15;;
9559;SDS011;4818;50.860;4.648;2023-08-06T04:46:07;1.67;;;0.88;;
9559;SDS011;4818;50.860;4.648;2023-08-06T04:48:34;1.90;;;0.57;;
9559;SDS011;4818;50.860;4.648;2023-08-06T04:51:00;1.83;;;0.82;;
9559;SDS011;4818;50.860;4.648;2023-08-06T04:53:26;3.65;;;0.40;;
9559;SDS011;4818;50.860;4.648;2023-08-06T04:55:52;2.53;;;0.50;;
9559;SDS011;4818;50.860;4.648;2023-08-06T04:58:19;3.58;;;0.80;;
9559;SDS011;4818;50.860;4.648;2023-08-06T05:00:45;7.30;;;1.13;;
9559;SDS011;4818;50.860;4.648;2023-08-06T05:03:11;3.67;;;1.17;;
9559;SDS011;4818;50.860;4.648;2023-08-06T05:05:39;7.38;;;2.50;;
9559;SDS011;4818;50.860;4.648;2023-08-06T05:08:06;5.67;;;2.37;;
9559;SDS011;4818;50.860;4.648;2023-08-06T05:10:32;9.77;;;3.33;;
9559;SDS011;4818;50.860;4.648;2023-08-06T05:12:59;11.27;;;4.18;;
9559;SDS011;4818;50.860;4.648;2023-08-06T05:15:25;8.80;;;3.47;;
9559;SDS011;4818;50.860;4.648;2023-08-06T05:17:52;8.60;;;3.40;;
9559;SDS011;4818;50.860;4.648;2023-08-06T05:20:18;8.45;;;3.97;;
9559;SDS011;4818;50.860;4.648;2023-08-06T05:22:44;8.55;;;4.68;;
9559;SDS011;4818;50.860;4.648;2023-08-06T05:25:12;11.57;;;5.22;;
9559;SDS011;4818;50.860;4.648;2023-08-06T05:27:39;16.08;;;4.63;;
9559;SDS011;4818;50.860;4.648;2023-08-06T05:30:06;14.95;;;5.63;;
9559;SDS011;4818;50.860;4.648;2023-08-06T05:32:32;9.38;;;5.05;;
9559;SDS011;4818;50.860;4.648;2023-08-06T05:34:58;10.73;;;5.88;;
9559;SDS011;4818;50.860;4.648;2023-08-06T05:37:24;7.47;;;4.53;;
9559;SDS011;4818;50.860;4.648;2023-08-06T05:39:51;7.60;;;4.75;;
9559;SDS011;4818;50.860;4.648;2023-08-06T05:42:17;7.93;;;3.75;;
9559;SDS011;4818;50.860;4.648;2023-08-06T05:44:43;9.75;;;3.10;;
9559;SDS011;4818;50.860;4.648;2023-08-06T05:47:10;8.02;;;4.15;;
9559;SDS011;4818;50.860;4.648;2023-08-06T05:49:37;6.18;;;2.85;;
9559;SDS011;4818;50.860;4.648;2023-08-06T05:52:03;8.25;;;2.90;;
9559;SDS011;4818;50.860;4.648;2023-08-06T05:54:31;9.63;;;2.10;;
9559;SDS011;4818;50.860;4.648;2023-08-06T05:56:58;12.63;;;2.90;;
9559;SDS011;4818;50.860;4.648;2023-08-06T05:59:24;16.27;;;3.40;;
9559;SDS011;4818;50.860;4.648;2023-08-06T06:01:50;11.00;;;2.47;;
9559;SDS011;4818;50.860;4.648;2023-08-06T06:04:16;10.82;;;2.38;;
9559;SDS011;4818;50.860;4.648;2023-08-06T06:06:43;9.70;;;1.98;;
9559;SDS011;4818;50.860;4.648;2023-08-06T06:09:10;7.10;;;2.03;;
9559;SDS011;4818;50.860;4.648;2023-08-06T06:11:36;16.83;;;2.97;;
9559;SDS011;4818;50.860;4.648;2023-08-06T06:14:02;12.88;;;2.50;;
9559;SDS011;4818;50.860;4.648;2023-08-06T06:16:29;12.20;;;2.60;;
9559;SDS011;4818;50.860;4.648;2023-08-06T06:18:55;8.82;;;2.63;;
9559;SDS011;4818;50.860;4.648;2023-08-06T06:21:25;14.70;;;2.33;;
9559;SDS011;4818;50.860;4.648;2023-08-06T06:24:02;10.95;;;2.72;;
9559;SDS011;4818;50.860;4.648;2023-08-06T06:26:29;14.77;;;2.38;;
9559;SDS011;4818;50.860;4.648;2023-08-06T06:28:55;9.13;;;2.35;;
9559;SDS011;4818;50.860;4.648;2023-08-06T06:31:22;8.75;;;2.28;;
9559;SDS011;4818;50.860;4.648;2023-08-06T06:33:58;10.10;;;2.22;;
9559;SDS011;4818;50.860;4.648;2023-08-06T06:36:24;8.45;;;1.95;;
9559;SDS011;4818;50.860;4.648;2023-08-06T06:38:50;12.05;;;2.50;;
9559;SDS011;4818;50.860;4.648;2023-08-06T06:41:17;12.48;;;2.75;;
9559;SDS011;4818;50.860;4.648;2023-08-06T06:43:44;10.25;;;2.40;;
9559;SDS011;4818;50.860;4.648;2023-08-06T06:46:13;12.15;;;2.42;;
9559;SDS011;4818;50.860;4.648;2023-08-06T06:48:48;13.48;;;3.20;;
9559;SDS011;4818;50.860;4.648;2023-08-06T06:51:14;10.93;;;3.35;;
9559;SDS011;4818;50.860;4.648;2023-08-06T06:53:40;12.05;;;3.70;;
9559;SDS011;4818;50.860;4.648;2023-08-06T06:56:06;10.23;;;2.67;;
9559;SDS011;4818;50.860;4.648;2023-08-06T06:58:33;13.00;;;2.40;;
9559;SDS011;4818;50.860;4.648;2023-08-06T07:01:01;12.10;;;3.00;;
9559;SDS011;4818;50.860;4.648;2023-08-06T07:03:31;11.48;;;3.75;;
9559;SDS011;4818;50.860;4.648;2023-08-06T07:05:58;10.57;;;3.05;;
9559;SDS011;4818;50.860;4.648;2023-08-06T07:08:25;8.88;;;2.53;;
9559;SDS011;4818;50.860;4.648;2023-08-06T07:10:59;11.45;;;2.35;;
9559;SDS011;4818;50.860;4.648;2023-08-06T07:13:25;15.00;;;2.60;;
9559;SDS011;4818;50.860;4.648;2023-08-06T07:15:51;14.27;;;2.47;;
9559;SDS011;4818;50.860;4.648;2023-08-06T07:18:18;9.40;;;2.85;;
9559;SDS011;4818;50.860;4.648;2023-08-06T07:20:48;14.85;;;3.95;;
9559;SDS011;4818;50.860;4.648;2023-08-06T07:23:20;10.48;;;2.17;;
9559;SDS011;4818;50.860;4.648;2023-08-06T07:25:47;11.60;;;1.88;;
9559;SDS011;4818;50.860;4.648;2023-08-06T07:28:14;10.75;;;1.92;;
9559;SDS011;4818;50.860;4.648;2023-08-06T07:30:40;16.52;;;2.30;;
9559;SDS011;4818;50.860;4.648;2023-08-06T07:33:07;8.70;;;2.00;;
9559;SDS011;4818;50.860;4.648;2023-08-06T07:35:33;9.15;;;1.98;;
9559;SDS011;4818;50.860;4.648;2023-08-06T07:38:00;8.45;;;2.92;;
9559;SDS011;4818;50.860;4.648;2023-08-06T07:40:26;15.65;;;2.97;;
9559;SDS011;4818;50.860;4.648;2023-08-06T07:42:53;13.57;;;3.20;;
9559;SDS011;4818;50.860;4.648;2023-08-06T07:45:19;8.32;;;1.48;;
9559;SDS011;4818;50.860;4.648;2023-08-06T07:47:46;9.00;;;1.35;;
9559;SDS011;4818;50.860;4.648;2023-08-06T07:50:12;7.30;;;1.85;;
9559;SDS011;4818;50.860;4.648;2023-08-06T07:52:39;6.47;;;0.73;;
9559;SDS011;4818;50.860;4.648;2023-08-06T07:55:05;8.40;;;0.52;;
9559;SDS011;4818;50.860;4.648;2023-08-06T07:57:32;7.75;;;0.52;;
9559;SDS011;4818;50.860;4.648;2023-08-06T07:59:59;14.82;;;0.93;;
9559;SDS011;4818;50.860;4.648;2023-08-06T08:02:25;15.80;;;0.57;;
9559;SDS011;4818;50.860;4.648;2023-08-06T08:04:57;13.52;;;0.93;;
9559;SDS011;4818;50.860;4.648;2023-08-06T08:07:27;5.18;;;0.68;;
9559;SDS011;4818;50.860;4.648;2023-08-06T08:09:55;11.38;;;0.95;;
9559;SDS011;4818;50.860;4.648;2023-08-06T08:12:22;9.07;;;1.05;;
9559;SDS011;4818;50.860;4.648;2023-08-06T08:14:48;11.45;;;1.33;;
9559;SDS011;4818;50.860;4.648;2023-08-06T08:17:15;13.15;;;0.88;;
9559;SDS011;4818;50.860;4.648;2023-08-06T08:19:44;9.73;;;0.73;;
9559;SDS011;4818;50.860;4.648;2023-08-06T08:22:10;11.63;;;1.20;;
9559;SDS011;4818;50.860;4.648;2023-08-06T08:24:37;6.93;;;0.68;;
9559;SDS011;4818;50.860;4.648;2023-08-06T08:27:03;10.00;;;0.82;;
9559;SDS011;4818;50.860;4.648;2023-08-06T08:29:30;3.95;;;0.57;;
9559;SDS011;4818;50.860;4.648;2023-08-06T08:31:58;17.70;;;1.73;;
9559;SDS011;4818;50.860;4.648;2023-08-06T08:34:35;7.07;;;0.47;;
9559;SDS011;4818;50.860;4.648;2023-08-06T08:37:02;7.53;;;0.90;;
9559;SDS011;4818;50.860;4.648;2023-08-06T08:39:35;9.65;;;1.30;;
9559;SDS011;4818;50.860;4.648;2023-08-06T08:42:01;6.97;;;0.85;;
9559;SDS011;4818;50.860;4.648;2023-08-06T08:44:28;10.23;;;0.50;;
9559;SDS011;4818;50.860;4.648;2023-08-06T08:46:57;9.57;;;0.80;;
9559;SDS011;4818;50.860;4.648;2023-08-06T08:49:24;9.18;;;0.85;;
9559;SDS011;4818;50.860;4.648;2023-08-06T08:51:50;10.30;;;1.05;;
9559;SDS011;4818;50.860;4.648;2023-08-06T08:54:18;4.43;;;0.57;;
9559;SDS011;4818;50.860;4.648;2023-08-06T08:56:46;3.47;;;0.30;;
9559;SDS011;4818;50.860;4.648;2023-08-06T08:59:12;9.15;;;0.40;;
9559;SDS011;4818;50.860;4.648;2023-08-06T09:01:38;7.15;;;0.50;;
9559;SDS011;4818;50.860;4.648;2023-08-06T09:04:05;7.53;;;0.50;;
9559;SDS011;4818;50.860;4.648;2023-08-06T09:06:32;9.48;;;0.88;;
9559;SDS011;4818;50.860;4.648;2023-08-06T09:09:06;4.22;;;0.73;;
9559;SDS011;4818;50.860;4.648;2023-08-06T09:11:35;5.85;;;0.57;;
9559;SDS011;4818;50.860;4.648;2023-08-06T09:14:05;7.80;;;0.63;;
9559;SDS011;4818;50.860;4.648;2023-08-06T09:16:36;8.48;;;0.95;;
9559;SDS011;4818;50.860;4.648;2023-08-06T09:19:15;8.23;;;0.70;;
9559;SDS011;4818;50.860;4.648;2023-08-06T09:21:45;9.25;;;0.40;;
9559;SDS011;4818;50.860;4.648;2023-08-06T09:24:15;5.72;;;0.43;;
9559;SDS011;4818;50.860;4.648;2023-08-06T09:26:41;10.93;;;0.95;;
9559;SDS011;4818;50.860;4.648;2023-08-06T09:29:08;8.05;;;0.65;;
9559;SDS011;4818;50.860;4.648;2023-08-06T09:31:45;5.47;;;0.40;;
9559;SDS011;4818;50.860;4.648;2023-08-06T09:36:46;7.13;;;0.60;;
9559;SDS011;4818;50.860;4.648;2023-08-06T09:39:18;7.18;;;0.68;;
9559;SDS011;4818;50.860;4.648;2023-08-06T09:41:45;7.40;;;0.52;;
9559;SDS011;4818;50.860;4.648;2023-08-06T09:44:21;6.45;;;0.50;;
9559;SDS011;4818;50.860;4.648;2023-08-06T09:46:52;4.97;;;0.50;;
9559;SDS011;4818;50.860;4.648;2023-08-06T09:49:19;7.13;;;0.55;;
9559;SDS011;4818;50.860;4.648;2023-08-06T09:51:50;10.75;;;0.80;;
9559;SDS011;4818;50.860;4.648;2023-08-06T09:54:22;10.98;;;0.73;;
9559;SDS011;4818;50.860;4.648;2023-08-06T09:56:51;8.45;;;1.52;;
9559;SDS011;4818;50.860;4.648;2023-08-06T09:59:18;8.82;;;0.85;;
9559;SDS011;4818;50.860;4.648;2023-08-06T10:01:45;12.75;;;1.17;;
9559;SDS011;4818;50.860;4.648;2023-08-06T10:04:12;7.93;;;1.10;;
9559;SDS011;4818;50.860;4.648;2023-08-06T10:06:41;5.78;;;0.45;;
9559;SDS011;4818;50.860;4.648;2023-08-06T10:09:10;7.30;;;1.52;;
9559;SDS011;4818;50.860;4.648;2023-08-06T10:11:40;6.00;;;0.50;;
9559;SDS011;4818;50.860;4.648;2023-08-06T10:14:13;6.88;;;0.52;;
9559;SDS011;4818;50.860;4.648;2023-08-06T10:16:41;6.75;;;0.82;;
9559;SDS011;4818;50.860;4.648;2023-08-06T10:19:11;8.82;;;0.90;;
9559;SDS011;4818;50.860;4.648;2023-08-06T10:21:38;7.15;;;1.05;;
9559;SDS011;4818;50.860;4.648;2023-08-06T10:24:07;8.00;;;0.82;;
9559;SDS011;4818;50.860;4.648;2023-08-06T10:26:42;5.63;;;0.80;;
9559;SDS011;4818;50.860;4.648;2023-08-06T10:29:52;7.22;;;1.02;;
9559;SDS011;4818;50.860;4.648;2023-08-06T10:31:59;9.07;;;0.82;;
9559;SDS011;4818;50.860;4.648;2023-08-06T10:34:46;10.65;;;1.35;;
9559;SDS011;4818;50.860;4.648;2023-08-06T10:37:15;7.40;;;0.70;;
9559;SDS011;4818;50.860;4.648;2023-08-06T10:39:47;4.35;;;0.50;;
9559;SDS011;4818;50.860;4.648;2023-08-06T10:42:22;11.48;;;1.05;;
9559;SDS011;4818;50.860;4.648;2023-08-06T10:47:44;10.50;;;0.82;;
9559;SDS011;4818;50.860;4.648;2023-08-06T10:52:37;8.98;;;0.80;;
9559;SDS011;4818;50.860;4.648;2023-08-06T10:55:04;7.25;;;0.80;;
9559;SDS011;4818;50.860;4.648;2023-08-06T10:57:30;5.55;;;0.70;;
9559;SDS011;4818;50.860;4.648;2023-08-06T10:59:56;5.95;;;0.60;;
9559;SDS011;4818;50.860;4.648;2023-08-06T11:02:23;8.65;;;0.95;;
9559;SDS011;4818;50.860;4.648;2023-08-06T11:04:50;6.70;;;0.60;;
9559;SDS011;4818;50.860;4.648;2023-08-06T11:07:16;9.68;;;0.90;;
9559;SDS011;4818;50.860;4.648;2023-08-06T11:09:42;6.90;;;0.63;;
9559;SDS011;4818;50.860;4.648;2023-08-06T11:12:09;4.13;;;0.85;;
9559;SDS011;4818;50.860;4.648;2023-08-06T11:14:36;7.63;;;0.75;;
9559;SDS011;4818;50.860;4.648;2023-08-06T11:17:04;7.80;;;1.15;;
9559;SDS011;4818;50.860;4.648;2023-08-06T11:19:31;7.65;;;1.20;;
9559;SDS011;4818;50.860;4.648;2023-08-06T11:21:57;6.75;;;0.90;;
9559;SDS011;4818;50.860;4.648;2023-08-06T11:24:24;6.68;;;0.98;;
9559;SDS011;4818;50.860;4.648;2023-08-06T11:26:51;11.13;;;0.90;;
9559;SDS011;4818;50.860;4.648;2023-08-06T11:29:17;4.07;;;0.80;;
9559;SDS011;4818;50.860;4.648;2023-08-06T11:31:44;11.40;;;1.02;;
9559;SDS011;4818;50.860;4.648;2023-08-06T11:34:10;12.05;;;0.70;;
9559;SDS011;4818;50.860;4.648;2023-08-06T11:36:40;8.38;;;1.05;;
9559;SDS011;4818;50.860;4.648;2023-08-06T11:39:06;8.38;;;0.95;;
9559;SDS011;4818;50.860;4.648;2023-08-06T11:41:33;12.20;;;1.25;;
9559;SDS011;4818;50.860;4.648;2023-08-06T11:43:59;8.52;;;1.10;;
9559;SDS011;4818;50.860;4.648;2023-08-06T11:46:25;7.78;;;0.88;;
9559;SDS011;4818;50.860;4.648;2023-08-06T11:48:55;2.70;;;0.40;;
9559;SDS011;4818;50.860;4.648;2023-08-06T11:51:25;10.60;;;0.98;;
9559;SDS011;4818;50.860;4.648;2023-08-06T11:54:01;9.10;;;0.95;;
9559;SDS011;4818;50.860;4.648;2023-08-06T11:56:27;4.32;;;0.50;;
9559;SDS011;4818;50.860;4.648;2023-08-06T11:58:56;7.50;;;0.47;;
9559;SDS011;4818;50.860;4.648;2023-08-06T12:01:22;7.18;;;0.73;;
9559;SDS011;4818;50.860;4.648;2023-08-06T12:03:49;3.90;;;0.40;;
9559;SDS011;4818;50.860;4.648;2023-08-06T12:06:16;9.88;;;0.50;;
9559;SDS011;4818;50.860;4.648;2023-08-06T12:08:42;8.07;;;0.80;;
9559;SDS011;4818;50.860;4.648;2023-08-06T12:11:09;6.13;;;0.52;;
9559;SDS011;4818;50.860;4.648;2023-08-06T12:13:35;6.60;;;0.30;;
9559;SDS011;4818;50.860;4.648;2023-08-06T12:16:02;4.40;;;0.60;;
9559;SDS011;4818;50.860;4.648;2023-08-06T12:18:30;9.38;;;0.40;;
9559;SDS011;4818;50.860;4.648;2023-08-06T12:20:57;8.25;;;0.73;;
9559;SDS011;4818;50.860;4.648;2023-08-06T12:23:23;7.50;;;0.75;;
9559;SDS011;4818;50.860;4.648;2023-08-06T12:25:50;6.38;;;1.05;;
9559;SDS011;4818;50.860;4.648;2023-08-06T12:28:19;4.93;;;0.45;;
9559;SDS011;4818;50.860;4.648;2023-08-06T12:30:48;11.83;;;0.60;;
9559;SDS011;4818;50.860;4.648;2023-08-06T12:33:15;5.97;;;0.57;;
9559;SDS011;4818;50.860;4.648;2023-08-06T12:35:41;8.07;;;0.50;;
9559;SDS011;4818;50.860;4.648;2023-08-06T12:38:07;7.55;;;0.90;;
9559;SDS011;4818;50.860;4.648;2023-08-06T12:40:33;6.38;;;0.50;;
9559;SDS011;4818;50.860;4.648;2023-08-06T12:43:06;5.57;;;0.93;;
9559;SDS011;4818;50.860;4.648;2023-08-06T12:45:32;9.15;;;0.65;;
9559;SDS011;4818;50.860;4.648;2023-08-06T12:48:02;4.60;;;0.60;;
9559;SDS011;4818;50.860;4.648;2023-08-06T12:50:28;7.00;;;0.52;;
9559;SDS011;4818;50.860;4.648;2023-08-06T12:52:55;6.90;;;0.60;;
9559;SDS011;4818;50.860;4.648;2023-08-06T12:55:21;9.75;;;0.73;;
9559;SDS011;4818;50.860;4.648;2023-08-06T12:57:47;7.45;;;0.55;;
9559;SDS011;4818;50.860;4.648;2023-08-06T13:00:13;5.03;;;0.50;;
9559;SDS011;4818;50.860;4.648;2023-08-06T13:02:42;6.20;;;1.48;;
9559;SDS011;4818;50.860;4.648;2023-08-06T13:05:12;5.95;;;0.68;;
9559;SDS011;4818;50.860;4.648;2023-08-06T13:07:38;8.70;;;0.70;;
9559;SDS011;4818;50.860;4.648;2023-08-06T13:10:05;5.85;;;0.45;;
9559;SDS011;4818;50.860;4.648;2023-08-06T13:12:35;8.48;;;0.90;;
9559;SDS011;4818;50.860;4.648;2023-08-06T13:15:01;4.90;;;0.82;;
9559;SDS011;4818;50.860;4.648;2023-08-06T13:17:28;7.90;;;0.90;;
9559;SDS011;4818;50.860;4.648;2023-08-06T13:19:54;7.05;;;0.95;;
9559;SDS011;4818;50.860;4.648;2023-08-06T13:22:20;7.43;;;0.73;;
9559;SDS011;4818;50.860;4.648;2023-08-06T13:24:52;14.23;;;0.70;;
9559;SDS011;4818;50.860;4.648;2023-08-06T13:27:25;8.38;;;0.45;;
9559;SDS011;4818;50.860;4.648;2023-08-06T13:29:52;5.07;;;0.50;;
9559;SDS011;4818;50.860;4.648;2023-08-06T13:32:18;6.22;;;0.98;;
9559;SDS011;4818;50.860;4.648;2023-08-06T13:34:47;8.10;;;0.82;;
9559;SDS011;4818;50.860;4.648;2023-08-06T13:37:16;5.65;;;0.75;;
9559;SDS011;4818;50.860;4.648;2023-08-06T13:39:46;9.88;;;0.60;;
9559;SDS011;4818;50.860;4.648;2023-08-06T13:42:12;5.00;;;0.85;;
9559;SDS011;4818;50.860;4.648;2023-08-06T13:44:39;3.05;;;0.30;;
9559;SDS011;4818;50.860;4.648;2023-08-06T13:47:07;5.55;;;0.50;;
9559;SDS011;4818;50.860;4.648;2023-08-06T13:49:34;6.05;;;0.63;;
9559;SDS011;4818;50.860;4.648;2023-08-06T13:52:00;5.28;;;0.75;;
9559;SDS011;4818;50.860;4.648;2023-08-06T13:54:26;4.65;;;0.40;;
9559;SDS011;4818;50.860;4.648;2023-08-06T13:56:52;4.68;;;1.00;;
9559;SDS011;4818;50.860;4.648;2023-08-06T13:59:19;2.22;;;0.45;;
9559;SDS011;4818;50.860;4.648;2023-08-06T14:01:45;10.60;;;0.70;;
9559;SDS011;4818;50.860;4.648;2023-08-06T14:04:12;6.47;;;0.30;;
9559;SDS011;4818;50.860;4.648;2023-08-06T14:06:38;8.90;;;0.50;;
9559;SDS011;4818;50.860;4.648;2023-08-06T14:09:05;6.10;;;0.57;;
9559;SDS011;4818;50.860;4.648;2023-08-06T14:11:31;10.60;;;1.10;;
9559;SDS011;4818;50.860;4.648;2023-08-06T14:13:58;6.22;;;0.50;;
9559;SDS011;4818;50.860;4.648;2023-08-06T14:16:25;5.82;;;0.52;;
9559;SDS011;4818;50.860;4.648;2023-08-06T14:18:51;9.35;;;0.80;;
9559;SDS011;4818;50.860;4.648;2023-08-06T14:21:20;6.20;;;0.65;;
9559;SDS011;4818;50.860;4.648;2023-08-06T14:23:46;12.43;;;0.57;;
9559;SDS011;4818;50.860;4.648;2023-08-06T14:26:12;8.82;;;1.45;;
9559;SDS011;4818;50.860;4.648;2023-08-06T14:28:40;6.38;;;0.50;;
9559;SDS011;4818;50.860;4.648;2023-08-06T14:31:06;8.90;;;0.98;;
9559;SDS011;4818;50.860;4.648;2023-08-06T14:33:33;7.57;;;0.75;;
9559;SDS011;4818;50.860;4.648;2023-08-06T14:36:01;11.85;;;0.93;;
9559;SDS011;4818;50.860;4.648;2023-08-06T14:38:28;8.77;;;1.15;;
9559;SDS011;4818;50.860;4.648;2023-08-06T14:40:55;7.30;;;1.00;;
9559;SDS011;4818;50.860;4.648;2023-08-06T14:43:21;7.53;;;0.80;;
9559;SDS011;4818;50.860;4.648;2023-08-06T14:45:48;12.82;;;1.75;;
9559;SDS011;4818;50.860;4.648;2023-08-06T14:48:14;11.23;;;1.23;;
9559;SDS011;4818;50.860;4.648;2023-08-06T14:50:43;7.32;;;0.73;;
9559;SDS011;4818;50.860;4.648;2023-08-06T14:53:22;10.10;;;1.30;;
9559;SDS011;4818;50.860;4.648;2023-08-06T14:55:48;16.10;;;1.52;;
9559;SDS011;4818;50.860;4.648;2023-08-06T14:58:15;8.77;;;1.20;;
9559;SDS011;4818;50.860;4.648;2023-08-06T15:00:41;10.38;;;0.85;;
9559;SDS011;4818;50.860;4.648;2023-08-06T15:03:07;8.70;;;1.40;;
9559;SDS011;4818;50.860;4.648;2023-08-06T15:05:34;11.15;;;1.00;;
9559;SDS011;4818;50.860;4.648;2023-08-06T15:08:00;11.23;;;1.13;;
9559;SDS011;4818;50.860;4.648;2023-08-06T15:10:26;18.08;;;1.95;;
9559;SDS011;4818;50.860;4.648;2023-08-06T15:12:52;13.00;;;1.27;;
9559;SDS011;4818;50.860;4.648;2023-08-06T15:15:18;9.63;;;0.85;;
9559;SDS011;4818;50.860;4.648;2023-08-06T15:17:44;13.82;;;1.73;;
9559;SDS011;4818;50.860;4.648;2023-08-06T15:20:11;7.32;;;0.88;;
9559;SDS011;4818;50.860;4.648;2023-08-06T15:22:37;7.88;;;0.85;;
9559;SDS011;4818;50.860;4.648;2023-08-06T15:25:04;12.13;;;0.98;;